Time;durP1;ratioP1;P1;durP2;ratioP2;P2;SDS_P1;SDS_P2;PMS_P1;PMS_P2;Temp;Humidity;BMP_temperature;BMP_pressure;BME280_temperature;BME280_humidity;BME280_pressure;Samples;Min_cycle;Max_cycle;Signal;HPM_P1;HPM_P2
2022/04/20 00:00:54;;;;;;;;;;;;;;;;;;5010663;28;19940;-73
2022/04/20 00:03:20;;;;;;;;;;;;;;;;;;5009721;28;19932;-72
2022/04/20 00:05:46;;;;;;;;;;;;;;;;;;5024348;23;22326;-76
2022/04/20 00:08:12;;;;;;;;;;;;;;;;;;4949434;28;19926;-75
2022/04/20 00:10:38;;;;;;;;;;;;;;;;;;4946237;28;19930;-75
2022/04/20 00:13:05;;;;;;;;;;;;;;;;;;4952021;28;19931;-75
2022/04/20 00:15:31;;;;;;;;;;;;;;;;;;4951945;28;19934;-75
2022/04/20 00:17:57;;;;;;;;;;;;;;;;;;4940753;28;19937;-75
2022/04/20 00:20:23;;;;;;;;;;;;;;;;;;4934076;28;19934;-75
2022/04/20 00:22:49;;;;;;;;;;;;;;;;;;4951489;28;20316;-75
2022/04/20 00:25:16;;;;;;;;;;;;;;;;;;4952856;28;20018;-75
2022/04/20 00:27:42;;;;;;;;;;;;;;;;;;4950386;28;20412;-75
2022/04/20 00:30:08;;;;;;;;;;;;;;;;;;4936412;29;19926;-75
2022/04/20 00:32:34;;;;;;;;;;;;;;;;;;4951463;28;20348;-75
2022/04/20 00:35:00;;;;;;;;;;;;;;;;;;4938819;28;19973;-75
2022/04/20 00:37:27;;;;;;;;;;;;;;;;;;4952794;28;19945;-74
2022/04/20 00:39:53;;;;;;;;;;;;;;;;;;4951911;28;20557;-75
2022/04/20 00:42:19;;;;;;;;;;;;;;;;;;4952384;28;19926;-74
2022/04/20 00:44:45;;;;;;;;;;;;;;;;;;4951660;28;19933;-75
2022/04/20 00:47:11;;;;;;;;;;;;;;;;;;4951778;28;19938;-75
2022/04/20 00:49:37;;;;;;;;;;;;;;;;;;4955882;28;20395;-75
2022/04/20 00:52:03;;;;;;;;;;;;;;;;;;4959782;28;19926;-75
2022/04/20 00:54:30;;;;;;;;;;;;;;;;;;4951417;28;19927;-75
2022/04/20 00:56:56;;;;;;;;;;;;;;;;;;4950945;28;19926;-75
2022/04/20 00:59:22;;;;;;;;;;;;;;;;;;4949867;28;19926;-75
2022/04/20 01:01:48;;;;;;;;;;;;;;;;;;4951535;28;19930;-75
2022/04/20 01:04:14;;;;;;;;;;;;;;;;;;4951003;28;19933;-75
2022/04/20 01:06:40;;;;;;;;;;;;;;;;;;4949139;28;19933;-75
2022/04/20 01:09:07;;;;;;;;;;;;;;;;;;4946452;29;19934;-75
2022/04/20 01:11:33;;;;;;;;;;;;;;;;;;4953257;28;19926;-75
2022/04/20 01:13:59;;;;;;;;;;;;;;;;;;4951171;28;19937;-75
2022/04/20 01:16:25;;;;;;;;;;;;;;;;;;4951838;28;19933;-75
2022/04/20 01:18:52;;;;;;;;;;;;;;;;;;4951744;28;20301;-75
2022/04/20 01:21:18;;;;;;;;;;;;;;;;;;4952418;28;19984;-75
2022/04/20 01:23:44;;;;;;;;;;;;;;;;;;4950754;28;20409;-75
2022/04/20 01:26:10;;;;;;;;;;;;;;;;;;4950795;28;19927;-75
2022/04/20 01:28:36;;;;;;;;;;;;;;;;;;4946441;28;19934;-75
2022/04/20 01:31:02;;;;;;;;;;;;;;;;;;4952410;28;19927;-75
2022/04/20 01:33:28;;;;;;;;;;;;;;;;;;4950891;28;19926;-75
2022/04/20 01:35:55;;;;;;;;;;;;;;;;;;4948398;28;20408;-75
2022/04/20 01:38:21;;;;;;;;;;;;;;;;;;4951490;28;19949;-75
2022/04/20 01:40:47;;;;;;;;;;;;;;;;;;4951102;28;19930;-75
2022/04/20 01:43:13;;;;;;;;;;;;;;;;;;4950244;28;19934;-75
2022/04/20 01:45:39;;;;;;;;;;;;;;;;;;4951032;28;20400;-75
2022/04/20 01:48:06;;;;;;;;;;;;;;;;;;4950518;28;20031;-75
2022/04/20 01:50:32;;;;;;;;;;;;;;;;;;4951634;28;19927;-75
2022/04/20 01:52:58;;;;;;;;;;;;;;;;;;4950066;28;19933;-75
2022/04/20 01:55:24;;;;;;;;;;;;;;;;;;4950348;28;19927;-74
2022/04/20 01:57:50;;;;;;;;;;;;;;;;;;4950760;28;19932;-74
2022/04/20 02:00:17;;;;;;;;;;;;;;;;;;4951056;28;19934;-75
2022/04/20 02:02:42;;;;;;;;;;;;;;;;;;4950110;28;19927;-75
2022/04/20 02:05:09;;;;;;;;;;;;;;;;;;4950556;28;20032;-74
2022/04/20 02:07:35;;;;;;;;;;;;;;;;;;4949604;28;19926;-75
2022/04/20 02:10:01;;;;;;;;;;;;;;;;;;4950408;28;19926;-75
2022/04/20 02:12:27;;;;;;;;;;;;;;;;;;4951408;28;19937;-75
2022/04/20 02:14:53;;;;;;;;;;;;;;;;;;4950376;28;19933;-75
2022/04/20 02:17:20;;;;;;;;;;;;;;;;;;4950920;28;19970;-75
2022/04/20 02:19:46;;;;;;;;;;;;;;;;;;4950771;28;19933;-75
2022/04/20 02:22:12;;;;;;;;;;;;;;;;;;4949572;28;19933;-75
2022/04/20 02:24:38;;;;;;;;;;;;;;;;;;4945451;28;20018;-75
2022/04/20 02:27:04;;;;;;;;;;;;;;;;;;4944473;28;19934;-75
2022/04/20 02:29:30;;;;;;;;;;;;;;;;;;4950137;28;19926;-75
2022/04/20 02:31:57;;;;;;;;;;;;;;;;;;4948467;28;20400;-75
2022/04/20 02:34:23;;;;;;;;;;;;;;;;;;4937099;28;19934;-75
2022/04/20 02:36:49;;;;;;;;;;;;;;;;;;4951842;28;19926;-74
2022/04/20 02:39:15;;;;;;;;;;;;;;;;;;4950078;28;19926;-75
2022/04/20 02:41:41;;;;;;;;;;;;;;;;;;4950730;28;19926;-75
2022/04/20 02:44:07;;;;;;;;;;;;;;;;;;4949807;28;20538;-75
2022/04/20 02:46:34;;;;;;;;;;;;;;;;;;4952556;28;19970;-75
2022/04/20 02:49:00;;;;;;;;;;;;;;;;;;4950417;28;20612;-75
2022/04/20 02:51:26;;;;;;;;;;;;;;;;;;4950036;28;19927;-75
2022/04/20 02:53:52;;;;;;;;;;;;;;;;;;4950119;28;19927;-75
2022/04/20 02:56:18;;;;;;;;;;;;;;;;;;4953593;28;20328;-75
2022/04/20 02:58:44;;;;;;;;;;;;;;;;;;4953982;28;19926;-75
2022/04/20 03:01:11;;;;;;;;;;;;;;;;;;4952987;28;19931;-76
2022/04/20 03:03:37;;;;;;;;;;;;;;;;;;4936977;28;19926;-75
2022/04/20 03:06:03;;;;;;;;;;;;;;;;;;4956693;28;19930;-74
2022/04/20 03:08:29;;;;;;;;;;;;;;;;;;4998510;28;20405;-75
2022/04/20 03:10:56;;;;;;;;;;;;;;;;;;4976138;28;19925;-75
2022/04/20 03:13:23;;;;;;;;;;;;;;;;;;4969721;28;20029;-75
2022/04/20 03:15:49;;;;;;;;;;;;;;;;;;4953142;28;19932;-75
2022/04/20 03:18:15;;;;;;;;;;;;;;;;;;4952173;28;19931;-75
2022/04/20 03:20:41;;;;;;;;;;;;;;;;;;4954804;28;19927;-75
2022/04/20 03:23:08;;;;;;;;;;;;;;;;;;4952301;28;20448;-75
2022/04/20 03:25:34;;;;;;;;;;;;;;;;;;4951211;28;19933;-74
2022/04/20 03:28:00;;;;;;;;;;;;;;;;;;4952414;28;19941;-75
2022/04/20 03:30:27;;;;;;;;;;;;;;;;;;4935218;28;19927;-75
2022/04/20 03:32:54;;;;;;;;;;;;;;;;;;4934278;28;19974;-75
2022/04/20 03:35:20;;;;;;;;;;;;;;;;;;4952181;29;20255;-75
2022/04/20 03:37:46;;;;;;;;;;;;;;;;;;4952680;28;19933;-75
2022/04/20 03:40:12;;;;;;;;;;;;;;;;;;4952814;28;19926;-75
2022/04/20 03:42:38;;;;;;;;;;;;;;;;;;4952225;28;19930;-75
2022/04/20 03:45:04;;;;;;;;;;;;;;;;;;4952414;28;19927;-75
2022/04/20 03:47:30;;;;;;;;;;;;;;;;;;4950925;28;20271;-74
2022/04/20 03:49:57;;;;;;;;;;;;;;;;;;4952351;28;19934;-74
2022/04/20 03:52:23;;;;;;;;;;;;;;;;;;4952030;28;19933;-75
2022/04/20 03:54:49;;;;;;;;;;;;;;;;;;4952579;28;19926;-74
2022/04/20 03:57:15;;;;;;;;;;;;;;;;;;4952632;28;19926;-75
2022/04/20 03:59:41;;;;;;;;;;;;;;;;;;4948256;28;20313;-75
2022/04/20 04:02:07;;;;;;;;;;;;;;;;;;4957248;28;19930;-74
2022/04/20 04:04:35;;;;;;;;;;;;;;;;;;4952157;28;19934;-74
2022/04/20 04:07:01;;;;;;;;;;;;;;;;;;4951787;28;19927;-74
2022/04/20 04:09:27;;;;;;;;;;;;;;;;;;4951791;28;20377;-74
2022/04/20 04:11:54;;;;;;;;;;;;;;;;;;4967018;28;19980;-74
2022/04/20 04:14:20;;;;;;;;;;;;;;;;;;4951225;28;19934;-74
2022/04/20 04:16:46;;;;;;;;;;;;;;;;;;4957166;28;19948;-74
2022/04/20 04:19:12;;;;;;;;;;;;;;;;;;4951605;28;19926;-75
2022/04/20 04:21:39;;;;;;;;;;;;;;;;;;4953625;28;20408;-74
2022/04/20 04:24:06;;;;;;;;;;;;;;;;;;4952259;28;19930;-74
2022/04/20 04:26:32;;;;;;;;;;;;;;;;;;4952376;28;19926;-74
2022/04/20 04:28:58;;;;;;;;;;;;;;;;;;4951298;28;20405;-74
2022/04/20 04:31:24;;;;;;;;;;;;;;;;;;4951599;28;19927;-75
2022/04/20 04:33:50;;;;;;;;;;;;;;;;;;4951915;28;19927;-74
2022/04/20 04:36:16;;;;;;;;;;;;;;;;;;4950892;28;19934;-74
2022/04/20 04:38:43;;;;;;;;;;;;;;;;;;4947515;28;20336;-74
2022/04/20 04:41:09;;;;;;;;;;;;;;;;;;4951314;28;19930;-75
2022/04/20 04:43:35;;;;;;;;;;;;;;;;;;4937120;29;19993;-75
2022/04/20 04:48:48;;;;;;;;;;;;;;;;;;4951825;29;19922;-74
2022/04/20 04:51:14;;;;;;;;;;;;;;;;;;4953138;28;19936;-75
2022/04/20 04:53:40;;;;;;;;;;;;;;;;;;4958071;28;19933;-75
2022/04/20 04:56:07;;;;;;;;;;;;;;;;;;4941460;28;19934;-74
2022/04/20 04:58:33;;;;;;;;;;;;;;;;;;4951955;28;20416;-74
2022/04/20 05:00:59;;;;;;;;;;;;;;;;;;4952113;28;19937;-74
2022/04/20 05:03:25;;;;;;;;;;;;;;;;;;4949475;28;19927;-75
2022/04/20 05:05:51;;;;;;;;;;;;;;;;;;4951363;28;19926;-75
2022/04/20 05:08:17;;;;;;;;;;;;;;;;;;4950944;28;20382;-74
2022/04/20 05:10:44;;;;;;;;;;;;;;;;;;4947999;28;19932;-74
2022/04/20 05:13:10;;;;;;;;;;;;;;;;;;4937365;28;19933;-74
2022/04/20 05:15:36;;;;;;;;;;;;;;;;;;4934045;28;19937;-74
2022/04/20 05:18:02;;;;;;;;;;;;;;;;;;4933332;29;19938;-75
2022/04/20 05:20:29;;;;;;;;;;;;;;;;;;4949029;28;19927;-74
2022/04/20 05:22:55;;;;;;;;;;;;;;;;;;4950865;28;20013;-74
2022/04/20 05:25:21;;;;;;;;;;;;;;;;;;4951737;28;20255;-74
2022/04/20 05:27:48;;;;;;;;;;;;;;;;;;4952354;28;20030;-74
2022/04/20 05:30:14;;;;;;;;;;;;;;;;;;4951296;28;19933;-74
2022/04/20 05:32:40;;;;;;;;;;;;;;;;;;4950899;28;19927;-75
2022/04/20 05:35:07;;;;;;;;;;;;;;;;;;4941207;28;19934;-74
2022/04/20 05:43:01;;;;;;;;;;;;;;;;;;4948633;29;19926;-74
2022/04/20 05:45:27;;;;;;;;;;;;;;;;;;4950993;28;19950;-75
2022/04/20 05:47:54;;;;;;;;;;;;;;;;;;4950789;28;19927;-74
2022/04/20 05:50:20;;;;;;;;;;;;;;;;;;4947998;28;19927;-74
2022/04/20 05:52:46;;;;;;;;;;;;;;;;;;4950537;28;19931;-74
2022/04/20 05:55:12;;;;;;;;;;;;;;;;;;4950381;28;19926;-74
2022/04/20 05:57:38;;;;;;;;;;;;;;;;;;4950412;28;19953;-74
2022/04/20 06:00:04;;;;;;;;;;;;;;;;;;4952025;28;20405;-74
2022/04/20 06:02:33;;;;;;;;;;;;;;;;;;4987788;28;20019;-74
2022/04/20 06:04:59;;;;;;;;;;;;;;;;;;4976243;28;19981;-74
2022/04/20 06:07:25;;;;;;;;;;;;;;;;;;4957617;28;19933;-73
2022/04/20 06:09:51;;;;;;;;;;;;;;;;;;4956844;28;19927;-74
2022/04/20 06:12:17;;;;;;;;;;;;;;;;;;4957992;28;19927;-74
2022/04/20 06:14:43;;;;;;;;;;;;;;;;;;4955794;28;20021;-74
2022/04/20 06:17:10;;;;;;;;;;;;;;;;;;4954989;28;19931;-74
2022/04/20 06:19:36;;;;;;;;;;;;;;;;;;4951017;28;20312;-74
2022/04/20 06:22:02;;;;;;;;;;;;;;;;;;4950027;28;19978;-74
2022/04/20 06:24:28;;;;;;;;;;;;;;;;;;4951121;28;20404;-74
2022/04/20 06:26:54;;;;;;;;;;;;;;;;;;4950334;28;19965;-74
2022/04/20 06:29:20;;;;;;;;;;;;;;;;;;4948587;28;19931;-74
2022/04/20 06:31:46;;;;;;;;;;;;;;;;;;4943791;29;19927;-74
2022/04/20 06:34:13;;;;;;;;;;;;;;;;;;4953544;28;20270;-74
2022/04/20 06:36:39;;;;;;;;;;;;;;;;;;4953570;28;19933;-74
2022/04/20 06:39:05;;;;;;;;;;;;;;;;;;4952722;28;19926;-74
2022/04/20 06:41:31;;;;;;;;;;;;;;;;;;4954252;28;19973;-74
2022/04/20 06:43:58;;;;;;;;;;;;;;;;;;4954316;28;19933;-74
2022/04/20 06:46:24;;;;;;;;;;;;;;;;;;4949793;28;19985;-74
2022/04/20 06:48:50;;;;;;;;;;;;;;;;;;4935468;29;19931;-74
2022/04/20 06:51:16;;;;;;;;;;;;;;;;;;4945046;28;19926;-74
2022/04/20 06:59:10;;;;;;;;;;;;;;;;;;4932817;28;19922;-74
2022/04/20 07:01:36;;;;;;;;;;;;;;;;;;4953885;28;20520;-74
2022/04/20 07:04:02;;;;;;;;;;;;;;;;;;4952843;28;19926;-74
2022/04/20 07:06:28;;;;;;;;;;;;;;;;;;4954146;28;19926;-74
2022/04/20 07:08:55;;;;;;;;;;;;;;;;;;4948931;28;19927;-74
2022/04/20 07:11:21;;;;;;;;;;;;;;;;;;4952838;28;20317;-74
2022/04/20 07:13:47;;;;;;;;;;;;;;;;;;4953471;28;19974;-74
2022/04/20 07:16:13;;;;;;;;;;;;;;;;;;4953169;28;19927;-74
2022/04/20 07:18:39;;;;;;;;;;;;;;;;;;4952903;28;19934;-74
2022/04/20 07:21:06;;;;;;;;;;;;;;;;;;4944704;28;19945;-74
2022/04/20 07:23:32;;;;;;;;;;;;;;;;;;4946017;28;20382;-74
2022/04/20 07:25:58;;;;;;;;;;;;;;;;;;4951758;28;19930;-74
2022/04/20 07:28:24;;;;;;;;;;;;;;;;;;4947866;28;20021;-75
2022/04/20 07:30:50;;;;;;;;;;;;;;;;;;4953539;28;19931;-73
2022/04/20 07:33:16;;;;;;;;;;;;;;;;;;4953146;28;19927;-75
2022/04/20 07:35:43;;;;;;;;;;;;;;;;;;4953799;28;20408;-75
2022/04/20 07:38:09;;;;;;;;;;;;;;;;;;4953773;28;19927;-75
2022/04/20 09:57:28;;;;;;;;;;;;;;;;;;5082197;27;20283;-75
2022/04/20 09:59:54;;;;;;;;;;;;;;;;;;5046203;28;20406;-75
2022/04/20 10:02:20;;;;;;;;;;;;;;;;;;5030838;28;19925;-76
2022/04/20 10:04:47;;;;;;;;;;;;;;;;;;5026243;28;19932;-76
2022/04/20 10:07:14;;;;;;;;;;;;;;;;;;5026526;28;19925;-76
2022/04/20 10:09:40;;;;;;;;;;;;;;;;;;5033003;28;19925;-76
2022/04/20 10:12:06;;;;;;;;;;;;;;;;;;5032977;28;19948;-76
2022/04/20 10:17:16;;;;;;;;;;;;;;;;;;5061800;28;19922;-78
2022/04/20 10:19:42;;;;;;;;;;;;;;;;;;5096208;28;19924;-77
2022/04/20 10:22:08;;;;;;;;;;;;;;;;;;5055287;28;19936;-76
2022/04/20 10:24:34;;;;;;;;;;;;;;;;;;5049241;28;19933;-74
2022/04/20 10:27:02;;;;;;;;;;;;;;;;;;5027005;28;20168;-73
2022/04/20 10:29:28;;;;;;;;;;;;;;;;;;5025684;28;19969;-73
2022/04/20 10:31:54;;;;;;;;;;;;;;;;;;5129905;28;19924;-73
2022/04/20 10:34:21;;;;;;;;;;;;;;;;;;5026264;27;19925;-73
2022/04/20 10:36:47;;;;;;;;;;;;;;;;;;5025401;28;20245;-73
2022/04/20 10:39:13;;;;;;;;;;;;;;;;;;5025825;28;19929;-73
2022/04/20 10:41:40;;;;;;;;;;;;;;;;;;5044938;28;19923;-73
2022/04/20 10:44:06;;;;;;;;;;;;;;;;;;5046453;28;19960;-73
2022/04/20 10:46:32;;;;;;;;;;;;;;;;;;5038916;28;19982;-74
2022/04/20 10:48:58;;;;;;;;;;;;;;;;;;5030463;28;19984;-78
2022/04/20 10:51:24;;;;;;;;;;;;;;;;;;5037599;28;19939;-74
2022/04/20 10:53:51;;;;;;;;;;;;;;;;;;5044973;28;19932;-74
2022/04/20 10:56:17;;;;;;;;;;;;;;;;;;5027824;28;19932;-74
2022/04/20 10:58:44;;;;;;;;;;;;;;;;;;5026713;28;20269;-73
2022/04/20 11:01:11;;;;;;;;;;;;;;;;;;5027878;28;19926;-74
2022/04/20 11:03:37;;;;;;;;;;;;;;;;;;5039822;28;19929;-74
2022/04/20 11:06:03;;;;;;;;;;;;;;;;;;5044585;28;19933;-74
2022/04/20 11:08:29;;;;;;;;;;;;;;;;;;5033608;28;19926;-74
2022/04/20 11:18:38;;;;;;;;;;;;;;;;;;5019931;28;20407;-74
2022/04/20 11:19:09;;;;;;;;;;;;;;;;;;5024482;28;19922;-75
2022/04/20 11:21:35;;;;;;;;;;;;;;;;;;5010963;28;19925;-75
2022/04/20 11:24:03;;;;;;;;;;;;;;;;;;5011617;28;19935;-74
2022/04/20 11:26:29;;;;;;;;;;;;;;;;;;5010958;28;19926;-75
2022/04/20 11:28:55;;;;;;;;;;;;;;;;;;5011618;28;19936;-75
2022/04/20 11:31:21;;;;;;;;;;;;;;;;;;5012281;28;20501;-74
2022/04/20 11:33:47;;;;;;;;;;;;;;;;;;5012534;28;19931;-74
2022/04/20 11:36:13;;;;;;;;;;;;;;;;;;5033894;28;20293;-74
2022/04/20 11:38:41;;;;;;;;;;;;;;;;;;5011725;28;19926;-74
2022/04/20 11:41:07;;;;;;;;;;;;;;;;;;5010705;28;19937;-73
2022/04/20 11:43:34;;;;;;;;;;;;;;;;;;5011483;28;19931;-75
2022/04/20 11:46:00;;;;;;;;;;;;;;;;;;5012992;28;19925;-75
2022/04/20 11:48:27;;;;;;;;;;;;;;;;;;5030606;28;19926;-75
2022/04/20 11:50:53;;;;;;;;;;;;;;;;;;5023456;28;20380;-74
2022/04/20 11:53:19;;;;;;;;;;;;;;;;;;5010948;28;19925;-75
2022/04/20 11:55:45;;;;;;;;;;;;;;;;;;5021991;28;19947;-75
2022/04/20 11:58:11;;;;;;;;;;;;;;;;;;5028456;28;20381;-74
2022/04/20 12:00:37;;;;;;;;;;;;;;;;;;5019216;28;19930;-74
2022/04/20 12:03:04;;;;;;;;;;;;;;;;;;4991276;28;19926;-75
2022/04/20 12:05:30;;;;;;;;;;;;;;;;;;5010806;28;19932;-75
2022/04/20 12:07:56;;;;;;;;;;;;;;;;;;5056147;22;19932;-76
2022/04/20 12:10:22;;;;;;;;;;;;;;;;;;5069864;28;19925;-77
2022/04/20 12:12:49;;;;;;;;;;;;;;;;;;5065933;28;19983;-76
2022/04/20 12:15:15;;;;;;;;;;;;;;;;;;5054988;28;20399;-76
2022/04/20 12:17:42;;;;;;;;;;;;;;;;;;5053753;28;19931;-77
2022/04/20 12:20:09;;;;;;;;;;;;;;;;;;5066708;28;19932;-75
2022/04/20 12:22:35;;;;;;;;;;;;;;;;;;5071536;28;19925;-75
2022/04/20 12:25:01;;;;;;;;;;;;;;;;;;5073355;28;19928;-76
2022/04/20 12:27:27;;;;;;;;;;;;;;;;;;5074040;28;19925;-76
2022/04/20 12:29:54;;;;;;;;;;;;;;;;;;5073675;28;20306;-76
2022/04/20 12:32:20;;;;;;;;;;;;;;;;;;5073540;28;20407;-77
2022/04/20 12:34:47;;;;;;;;;;;;;;;;;;5073330;28;20007;-74
2022/04/20 12:37:13;;;;;;;;;;;;;;;;;;5073141;28;20136;-75
2022/04/20 12:39:39;;;;;;;;;;;;;;;;;;5072997;28;19976;-74
2022/04/20 12:42:06;;;;;;;;;;;;;;;;;;5073387;28;19932;-74
2022/04/20 12:44:34;;;;;;;;;;;;;;;;;;5072874;28;20307;-74
2022/04/20 12:47:00;;;;;;;;;;;;;;;;;;5073867;28;20122;-75
2022/04/20 12:49:26;;;;;;;;;;;;;;;;;;5073804;28;20401;-74
2022/04/20 12:51:53;;;;;;;;;;;;;;;;;;5073003;28;19929;-76
2022/04/20 12:54:19;;;;;;;;;;;;;;;;;;5072982;28;19928;-75
2022/04/20 13:02:18;;;;;;;;;;;;;;;;;;5034656;28;20439;-74
2022/04/20 13:04:44;;;;;;;;;;;;;;;;;;5073267;28;19925;-74
2022/04/20 13:07:10;;;;;;;;;;;;;;;;;;5073923;28;19924;-74
2022/04/20 13:09:38;;;;;;;;;;;;;;;;;;5073874;28;19970;-74
2022/04/20 13:12:04;;;;;;;;;;;;;;;;;;5073248;28;19932;-74
2022/04/20 13:14:31;;;;;;;;;;;;;;;;;;5072825;28;19924;-74
2022/04/20 13:16:57;;;;;;;;;;;;;;;;;;5073420;28;19925;-74
2022/04/20 13:19:23;;;;;;;;;;;;;;;;;;5073213;28;19939;-74
2022/04/20 13:21:49;;;;;;;;;;;;;;;;;;5070512;28;20402;-74
2022/04/20 13:27:53;;;;;;;;;;;;;;;;;;5064055;28;19924;-75
2022/04/20 13:29:46;;;;;;;;;;;;;;;;;;5070111;28;19919;-74
2022/04/20 13:32:12;;;;;;;;;;;;;;;;;;5071093;28;20319;-74
2022/04/20 13:34:39;;;;;;;;;;;;;;;;;;5072008;28;19924;-74
2022/04/20 13:37:05;;;;;;;;;;;;;;;;;;5062563;28;20380;-74
2022/04/20 13:39:31;;;;;;;;;;;;;;;;;;5073028;28;19924;-75
2022/04/20 13:41:57;;;;;;;;;;;;;;;;;;5073083;28;19931;-74
2022/04/20 13:44:23;;;;;;;;;;;;;;;;;;5072478;28;19942;-75
2022/04/20 13:46:49;;;;;;;;;;;;;;;;;;5073209;28;20022;-74
2022/04/20 13:49:16;;;;;;;;;;;;;;;;;;5062222;28;19925;-75
2022/04/20 13:51:42;;;;;;;;;;;;;;;;;;5066728;28;19948;-74
2022/04/20 13:54:08;;;;;;;;;;;;;;;;;;5072428;28;19924;-75
2022/04/20 13:56:35;;;;;;;;;;;;;;;;;;5072205;28;19935;-74
2022/04/20 13:59:01;;;;;;;;;;;;;;;;;;5073623;28;20458;-75
2022/04/20 14:01:28;;;;;;;;;;;;;;;;;;5074049;28;20405;-74
2022/04/20 14:03:54;;;;;;;;;;;;;;;;;;5073322;28;19924;-75
2022/04/20 14:06:21;;;;;;;;;;;;;;;;;;5072720;28;20302;-74
2022/04/20 14:08:47;;;;;;;;;;;;;;;;;;5072324;28;19960;-74
2022/04/20 14:11:13;;;;;;;;;;;;;;;;;;5072665;28;19925;-75
2022/04/20 14:13:40;;;;;;;;;;;;;;;;;;5071584;28;20022;-75
2022/04/20 14:16:06;;;;;;;;;;;;;;;;;;5072594;28;20015;-74
2022/04/20 14:18:33;;;;;;;;;;;;;;;;;;5072983;28;20358;-74
2022/04/20 14:20:59;;;;;;;;;;;;;;;;;;5073169;28;19925;-78
2022/04/20 14:23:25;;;;;;;;;;;;;;;;;;5072339;28;19928;-74
2022/04/20 14:34:04;;;;;;;;;;;;;;;;;;5056700;28;19924;-75
2022/04/20 14:36:30;;;;;;;;;;;;;;;;;;5072873;28;19924;-76
2022/04/20 14:38:56;;;;;;;;;;;;;;;;;;5072391;28;20375;-75
2022/04/20 14:41:23;;;;;;;;;;;;;;;;;;5071159;28;19931;-75
2022/04/20 14:43:49;;;;;;;;;;;;;;;;;;5074814;28;19924;-76
2022/04/20 14:46:17;;;;;;;;;;;;;;;;;;5076004;28;19929;-76
2022/04/20 14:48:43;;;;;;;;;;;;;;;;;;5077405;28;19975;-76
2022/04/20 14:51:09;;;;;;;;;;;;;;;;;;5091241;28;19930;-77
2022/04/20 14:53:35;;;;;;;;;;;;;;;;;;5090250;28;20029;-75
2022/04/20 14:56:01;;;;;;;;;;;;;;;;;;5089825;28;19931;-76
2022/04/20 14:58:27;;;;;;;;;;;;;;;;;;5084165;28;19925;-76
2022/04/20 15:00:55;;;;;;;;;;;;;;;;;;5077562;28;20522;-75
2022/04/20 15:03:21;;;;;;;;;;;;;;;;;;5075317;28;20303;-77
2022/04/20 15:05:47;;;;;;;;;;;;;;;;;;5076130;28;19924;-76
2022/04/20 15:08:13;;;;;;;;;;;;;;;;;;5075765;28;19924;-76
2022/04/20 15:10:39;;;;;;;;;;;;;;;;;;5075820;28;20014;-76
2022/04/20 15:13:06;;;;;;;;;;;;;;;;;;5075157;28;19928;-77
2022/04/20 15:15:32;;;;;;;;;;;;;;;;;;5075472;28;19932;-75
2022/04/20 15:17:59;;;;;;;;;;;;;;;;;;5075248;28;20359;-75
2022/04/20 15:20:25;;;;;;;;;;;;;;;;;;5075942;28;19970;-76
2022/04/20 15:22:51;;;;;;;;;;;;;;;;;;5074827;28;19925;-76
2022/04/20 15:25:17;;;;;;;;;;;;;;;;;;5076045;28;19924;-75
2022/04/20 15:27:44;;;;;;;;;;;;;;;;;;5075237;28;19986;-76
2022/04/20 15:30:10;;;;;;;;;;;;;;;;;;5075296;28;19963;-76
2022/04/20 15:32:39;;;;;;;;;;;;;;;;;;5074765;28;19928;-76
2022/04/20 15:35:09;;;;;;;;;;;;;;;;;;5075783;28;20280;-75
2022/04/20 15:37:35;;;;;;;;;;;;;;;;;;5075001;28;20384;-75
2022/04/20 15:40:01;;;;;;;;;;;;;;;;;;5075293;28;19925;-77
2022/04/20 15:42:27;;;;;;;;;;;;;;;;;;5074825;28;19934;-77
2022/04/20 15:44:54;;;;;;;;;;;;;;;;;;5074839;28;19932;-76
2022/04/20 15:47:21;;;;;;;;;;;;;;;;;;5075083;28;20000;-76
2022/04/20 15:49:47;;;;;;;;;;;;;;;;;;5075411;28;19995;-75
2022/04/20 15:52:13;;;;;;;;;;;;;;;;;;5075287;28;20434;-76
2022/04/20 15:54:39;;;;;;;;;;;;;;;;;;5075055;28;19928;-76
2022/04/20 16:02:34;;;;;;;;;;;;;;;;;;5074573;28;19920;-75
2022/04/20 16:05:00;;;;;;;;;;;;;;;;;;5075083;28;19931;-75
2022/04/20 16:07:26;;;;;;;;;;;;;;;;;;5075060;28;19925;-75
2022/04/20 16:09:53;;;;;;;;;;;;;;;;;;5075024;28;20361;-76
2022/04/20 16:12:19;;;;;;;;;;;;;;;;;;5074372;28;19924;-76
2022/04/20 16:14:45;;;;;;;;;;;;;;;;;;5074407;28;20361;-75
2022/04/20 16:17:11;;;;;;;;;;;;;;;;;;5074347;28;19924;-76
2022/04/20 16:19:37;;;;;;;;;;;;;;;;;;5074102;28;20434;-76
2022/04/20 16:22:03;;;;;;;;;;;;;;;;;;5074872;28;19924;-75
2022/04/20 16:24:31;;;;;;;;;;;;;;;;;;5074455;28;20191;-76
2022/04/20 16:26:58;;;;;;;;;;;;;;;;;;5074231;28;19924;-77
2022/04/20 16:29:24;;;;;;;;;;;;;;;;;;5074502;28;19932;-75
2022/04/20 16:31:50;;;;;;;;;;;;;;;;;;5074577;28;19931;-75
2022/04/20 16:34:16;;;;;;;;;;;;;;;;;;5073362;28;19931;-75
2022/04/20 16:36:43;;;;;;;;;;;;;;;;;;5074222;28;19935;-77
2022/04/20 16:39:09;;;;;;;;;;;;;;;;;;5074067;28;19932;-75
2022/04/20 16:41:37;;;;;;;;;;;;;;;;;;5072794;28;19924;-75
2022/04/20 16:44:03;;;;;;;;;;;;;;;;;;5063337;28;19931;-75
2022/04/20 16:46:29;;;;;;;;;;;;;;;;;;5072746;28;19931;-75
2022/04/20 16:48:55;;;;;;;;;;;;;;;;;;5069062;28;20325;-76
2022/04/20 16:51:22;;;;;;;;;;;;;;;;;;5073714;28;19970;-76
2022/04/20 16:53:48;;;;;;;;;;;;;;;;;;5072168;28;19929;-76
2022/04/20 16:56:14;;;;;;;;;;;;;;;;;;5073195;28;19925;-76
2022/04/20 16:58:41;;;;;;;;;;;;;;;;;;5070091;28;19933;-76
2022/04/20 17:01:07;;;;;;;;;;;;;;;;;;5053477;28;20291;-75
2022/04/20 17:03:33;;;;;;;;;;;;;;;;;;5054290;28;20017;-75
2022/04/20 17:05:59;;;;;;;;;;;;;;;;;;5053805;28;19925;-75
2022/04/20 17:08:25;;;;;;;;;;;;;;;;;;5064015;28;19936;-75
2022/04/20 17:10:52;;;;;;;;;;;;;;;;;;5073644;28;19924;-77
2022/04/20 17:13:18;;;;;;;;;;;;;;;;;;5073372;28;19928;-75
2022/04/20 17:15:44;;;;;;;;;;;;;;;;;;5055097;28;19931;-75
2022/04/20 17:18:10;;;;;;;;;;;;;;;;;;5072075;28;19924;-76
2022/04/20 17:28:49;;;;;;;;;;;;;;;;;;5069906;28;19986;-77
2022/04/20 17:31:15;;;;;;;;;;;;;;;;;;5074439;28;19931;-76
2022/04/20 17:33:42;;;;;;;;;;;;;;;;;;5073940;28;19931;-76
2022/04/20 17:38:52;;;;;;;;;;;;;;;;;;5073653;28;20021;-77
2022/04/20 17:41:18;;;;;;;;;;;;;;;;;;5074050;28;19938;-77
2022/04/20 17:43:45;;;;;;;;;;;;;;;;;;5073259;28;20397;-77
2022/04/20 17:46:11;;;;;;;;;;;;;;;;;;5074657;28;19924;-76
2022/04/20 17:48:38;;;;;;;;;;;;;;;;;;5074411;28;20383;-76
2022/04/20 17:51:04;;;;;;;;;;;;;;;;;;5075642;28;20207;-75
2022/04/20 17:53:31;;;;;;;;;;;;;;;;;;5073394;28;19931;-76
2022/04/20 17:55:57;;;;;;;;;;;;;;;;;;5058206;28;20355;-76
2022/04/20 17:58:23;;;;;;;;;;;;;;;;;;5064054;28;19935;-76
2022/04/20 18:00:49;;;;;;;;;;;;;;;;;;5073215;28;19935;-75
2022/04/20 18:03:17;;;;;;;;;;;;;;;;;;5072165;28;19986;-75
2022/04/20 18:05:44;;;;;;;;;;;;;;;;;;5073586;28;19924;-75
2022/04/20 18:08:10;;;;;;;;;;;;;;;;;;5072383;28;19924;-75
2022/04/20 18:10:36;;;;;;;;;;;;;;;;;;5072829;22;20037;-75
2022/04/20 18:13:03;;;;;;;;;;;;;;;;;;5045200;28;20307;-75
2022/04/20 18:15:29;;;;;;;;;;;;;;;;;;5040774;28;19935;-76
2022/04/20 18:17:55;;;;;;;;;;;;;;;;;;5052265;28;19925;-75
2022/04/20 18:20:21;;;;;;;;;;;;;;;;;;5041071;28;19926;-75
2022/04/20 18:22:47;;;;;;;;;;;;;;;;;;5034684;28;20384;-76
2022/04/20 18:25:13;;;;;;;;;;;;;;;;;;5048373;28;19931;-76
2022/04/20 18:27:40;;;;;;;;;;;;;;;;;;5055754;28;19943;-75
2022/04/20 18:30:06;;;;;;;;;;;;;;;;;;5044461;28;19925;-76
2022/04/20 18:32:32;;;;;;;;;;;;;;;;;;5033925;28;20398;-76
2022/04/20 18:34:58;;;;;;;;;;;;;;;;;;5049170;28;20315;-75
2022/04/20 18:37:24;;;;;;;;;;;;;;;;;;5059251;28;19932;-76
2022/04/20 18:39:51;;;;;;;;;;;;;;;;;;5055011;28;19932;-76
2022/04/20 18:42:17;;;;;;;;;;;;;;;;;;5055157;28;19924;-75
2022/04/20 18:44:44;;;;;;;;;;;;;;;;;;5061308;28;19925;-76
2022/04/20 18:47:10;;;;;;;;;;;;;;;;;;5075112;28;19928;-76
2022/04/20 18:49:36;;;;;;;;;;;;;;;;;;5061312;28;19964;-76
2022/04/20 18:52:02;;;;;;;;;;;;;;;;;;5055050;28;19925;-76
2022/04/20 18:59:56;;;;;;;;;;;;;;;;;;5053925;28;20387;-75
2022/04/20 19:02:22;;;;;;;;;;;;;;;;;;5054843;28;19924;-75
2022/04/20 19:04:48;;;;;;;;;;;;;;;;;;5054070;28;19924;-76
2022/04/20 19:07:15;;;;;;;;;;;;;;;;;;5044149;28;20415;-75
2022/04/20 19:09:41;;;;;;;;;;;;;;;;;;5048955;28;20414;-75
2022/04/20 19:12:07;;;;;;;;;;;;;;;;;;5053278;28;19948;-76
2022/04/20 19:14:34;;;;;;;;;;;;;;;;;;5054742;28;19931;-76
2022/04/20 19:17:00;;;;;;;;;;;;;;;;;;5054430;28;19929;-76
2022/04/20 19:19:26;;;;;;;;;;;;;;;;;;5054397;28;19925;-76
2022/04/20 19:21:52;;;;;;;;;;;;;;;;;;5053706;28;19929;-76
2022/04/20 19:24:18;;;;;;;;;;;;;;;;;;5065317;28;19948;-75
2022/04/20 19:26:44;;;;;;;;;;;;;;;;;;5053919;28;19924;-75
2022/04/20 19:29:11;;;;;;;;;;;;;;;;;;5053894;28;20465;-76
2022/04/20 19:31:37;;;;;;;;;;;;;;;;;;5054011;28;19947;-75
2022/04/20 19:34:03;;;;;;;;;;;;;;;;;;5054050;28;19925;-76
2022/04/20 19:36:31;;;;;;;;;;;;;;;;;;5054714;28;19925;-75
2022/04/20 19:38:58;;;;;;;;;;;;;;;;;;5039726;28;20291;-76
2022/04/20 19:41:24;;;;;;;;;;;;;;;;;;5054609;28;20024;-76
2022/04/20 19:46:32;;;;;;;;;;;;;;;;;;5125859;27;19920;-75
2022/04/20 19:50:42;;;;;;;;;;;;;;;;;;5122992;27;19920;-74
2022/04/20 19:53:08;;;;;;;;;;;;;;;;;;5088736;28;19985;-73
2022/04/20 19:57:50;;;;;;;;;;;;;;;;;;5093525;27;19920;-76
2022/04/20 20:00:16;;;;;;;;;;;;;;;;;;5062676;28;19932;-76
2022/04/20 20:02:42;;;;;;;;;;;;;;;;;;5065263;28;19994;-75